Погода Оутйона 2 недели

Окаванго, Намибия

01 - 14 марта
  • 01марта
    Сегодня
    +20°
    +34°
    Практически безоблачно
    ВремяПогодаТемператураВлажностьДавлениеВетер, м/сВероятность осадков
    02:00Облачно с прояснениями+23°C74 %662 мм1.9 м/с3 %
    05:00Ясно и безоблачно+22°C81 %661 мм2.1 м/с5 %
    08:00Ясно и безоблачно+22°C73 %662 мм3.4 м/с5 %
    11:00Ясно и безоблачно+30°C33 %664 мм5.5 м/с5 %
    14:00Практически безоблачно+33°C27 %664 мм4.0 м/с19 %
    17:00Ясно и безоблачно+33°C25 %662 мм1.5 м/с3 %
    20:00Небольшая облачность+31°C37 %662 мм1.0 м/с11 %
    23:00Ясно и безоблачно+25°C49 %663 мм4.9 м/с3 %
  • 02марта
    Суббота
    +20°
    +36°
    Ясно и безоблачно
    ВремяПогодаТемператураВлажностьДавлениеВетер, м/сВероятность осадков
    02:00Ясно и безоблачно+23°C60 %662 мм3.3 м/с5 %
    05:00Ясно и безоблачно+22°C72 %662 мм2.0 м/с2 %
    08:00Ясно и безоблачно+22°C67 %663 мм0.9 м/с1 %
    11:00Ясно и безоблачно+31°C25 %664 мм2.8 м/с5 %
    14:00Ясно и безоблачно+36°C16 %663 мм3.9 м/с5 %
    17:00Ясно и безоблачно+35°C16 %662 мм2.7 м/с3 %
    20:00Ясно и безоблачно+31°C22 %662 мм3.1 м/с3 %
    23:00Ясно и безоблачно+28°C28 %662 мм4.4 м/с3 %
  • 03марта
    Воскресенье
    +19°
    +37°
    Небольшая облачность
    ВремяПогодаТемператураВлажностьДавлениеВетер, м/сВероятность осадков
    02:00Ясно и безоблачно+24°C44 %661 мм3.6 м/с5 %
    05:00Ясно и безоблачно+22°C52 %661 мм2.1 м/с2 %
    08:00Ясно и безоблачно+22°C48 %662 мм0.9 м/с5 %
    11:00Ясно и безоблачно+32°C20 %664 мм3.2 м/с5 %
    14:00Небольшая облачность+37°C12 %663 мм2.0 м/с5 %
    17:00Облачно с прояснениями+36°C13 %661 мм4.6 м/с4 %
    20:00Небольшая облачность+33°C19 %661 мм1.8 м/с6 %
    23:00Ясно и безоблачно+27°C33 %662 мм4.8 м/с6 %
  • 04марта
    Понедельник
    +18°
    +37°
    Ясно и безоблачно
    ВремяПогодаТемператураВлажностьДавлениеВетер, м/сВероятность осадков
    02:00Ясно и безоблачно+22°C42 %661 мм5.3 м/с5 %
    05:00Ясно и безоблачно+21°C48 %660 мм4.1 м/с5 %
    08:00Небольшая облачность+22°C45 %661 мм2.5 м/с5 %
    11:00Ясно и безоблачно+30°C24 %662 мм4.4 м/с5 %
    14:00Ясно и безоблачно+36°C15 %661 мм3.8 м/с5 %
    17:00Ясно и безоблачно+35°C16 %660 мм7.2 м/с5 %
    20:00Ясно и безоблачно+31°C20 %661 мм7.9 м/с5 %
    23:00Ясно и безоблачно+25°C32 %661 мм6.3 м/с5 %
  • 05марта
    Вторник
    +16°
    +35°
    Ясно и безоблачно
    ВремяПогодаТемператураВлажностьДавлениеВетер, м/сВероятность осадков
    02:00Ясно и безоблачно+21°C39 %660 мм4.9 м/с5 %
    05:00Ясно и безоблачно+19°C43 %659 мм4.1 м/с5 %
    08:00Ясно и безоблачно+19°C43 %661 мм1.8 м/с5 %
    11:00Ясно и безоблачно+27°C18 %662 мм2.2 м/с5 %
    14:00Ясно и безоблачно+34°C14 %662 мм5.1 м/с5 %
    17:00Ясно и безоблачно+34°C13 %661 мм7.3 м/с5 %
    20:00Ясно и безоблачно+29°C18 %661 мм5.8 м/с5 %
    23:00Ясно и безоблачно+24°C27 %661 мм6.5 м/с5 %
Мы используем cookies
Соглашаюсь